Isle Of Palms, SC (29451)

1:25 PM EST on November 27, 2014 (GMT -0500)
Snee Farm | Change Station
CLOSE
Current Station
Personal Weather Station
Location: Mt. Pleasant, SC
Elevation: 22 ft
Nearby Weather Stations
Active Advisory: Special Statement

Elev 22 ft 32.84 °N, 79.84 °W | Updated 4 minutes ago

Clear
Clear
54.1 °F
Feels Like 54.1 °F
N
2.0
Wind Variable Wind from NNW

Today
High -- | Low -- °F
--% Chance of Precip.
Yesterday
High -- | Low -- °F
Precip. -- in
7:00 AM 5:13 PM
Waxing Crescent, 31% visible
Pressure 30.10 in
Visibility 10.0 miles
Clouds Clear
Dew Point 37 °F
Humidity 53%
Rainfall 0.00 in
Snow Depth Not available.
UV 4 out of 12
Pollen 2.80 out of 12
Air Quality Not available.
Flu Activity Not available.
METAR KLRO 271815Z AUTO 28013G20KT 10SM CLR 13/00 A3010 RMK AO2 PWINO PNO

More Conditions Fewer Conditions

Pressure 30.10 in
Visibility 10.0 miles
Clouds Clear
Dew Point 37 °F
Humidity 53%
Rainfall 0.00 in
Snow Depth Not available.
UV 4 out of 12
Pollen 2.80 out of 12
Air Quality Not available.
Flu Activity Not available.
METAR KLRO 271815Z AUTO 28013G20KT 10SM CLR 13/00 A3010 RMK AO2 PWINO PNO

More Conditions Fewer Conditions

10-Day Weather Forecast

Almanac

Astronomy

Nov. 27, 2014 Rise Set
Actual Time
Civil Twilight
Nautical Twilight
Astronomical Twilight
Moon
Length of Visible Light
Length of Day
Tomorrow will be .
, % of the Moon is Illuminated

Today's Extremes

State Highs State Lows

Community

WunderPhotos

Upload Photos

1,774,079 photos uploaded!

WunderBlogs® & News

Nearby

Air Quality

  Air Quality AQ Index Pollutant
Not available.

Snow Depth

Station Depth Elevation

Earthquake Activity

City Distance Mag. Time & Date
Minimum magnitude displayed is 2.5.

Coastal Water Temperatures

Place Temperature

Nearby Weather Stations